createdAt,value
2022-10-11T00:18:13.881Z,83
2022-10-11T00:38:13.833Z,81
2022-10-11T00:58:13.807Z,80.3
2022-10-11T01:18:13.807Z,80.4
2022-10-11T01:38:13.718Z,81.4
2022-10-11T02:18:27.662Z,85.2
2022-10-11T02:38:13.588Z,88.4
2022-10-11T02:58:20.560Z,90.6
2022-10-11T03:18:13.532Z,91
2022-10-11T03:38:20.508Z,91.7
2022-10-11T04:18:13.439Z,93.3
2022-10-11T04:38:13.383Z,94.5
2022-10-11T04:58:27.345Z,94.9
2022-10-11T05:18:13.298Z,95.1
2022-10-11T05:38:20.418Z,95.7
2022-10-11T05:58:20.239Z,95.8
2022-10-11T06:18:13.223Z,95
2022-10-11T06:58:13.116Z,93.7
2022-10-11T07:18:13.062Z,91.6
2022-10-11T07:38:27.052Z,82.9
2022-10-11T07:58:12.997Z,73.7
2022-10-11T08:18:12.951Z,67.2
2022-10-11T08:38:19.895Z,64.5
2022-10-11T08:58:19.856Z,59.5
2022-10-11T09:38:12.758Z,59.4
2022-10-11T09:58:12.723Z,58.3
2022-10-11T10:18:26.751Z,57.1
2022-10-11T10:38:12.657Z,55.6
2022-10-11T10:58:15.117Z,52.1
2022-10-11T11:18:12.503Z,55.8
2022-10-11T11:38:12.491Z,61.2
2022-10-11T12:18:12.463Z,56.7
2022-10-11T12:38:12.322Z,55.2
2022-10-11T12:58:12.293Z,51.2
2022-10-11T13:18:12.237Z,47.6
2022-10-11T13:38:19.188Z,50.2
2022-10-11T13:58:19.282Z,45.9
2022-10-11T14:18:12.086Z,49
2022-10-11T14:38:19.033Z,53.2
2022-10-11T14:58:12.010Z,55.3
2022-10-11T15:18:11.956Z,57.6
2022-10-11T15:58:11.884Z,67.1
2022-10-11T16:18:11.815Z,71.8
2022-10-11T16:38:11.776Z,76.3
2022-10-11T17:18:11.691Z,79.9
2022-10-11T17:38:11.714Z,82.9
2022-10-11T17:58:11.639Z,83.8
2022-10-11T18:38:11.542Z,87.3
2022-10-11T18:58:11.503Z,85.3
2022-10-11T19:18:11.483Z,87.2
2022-10-11T19:58:11.415Z,89.2
2022-10-11T20:18:11.360Z,90
2022-10-11T20:38:11.342Z,89.2
2022-10-11T21:38:11.236Z,89.8
2022-10-11T21:58:11.199Z,92.1
2022-10-11T22:58:11.125Z,91.4
2022-10-11T23:18:18.086Z,91.3
